Aeroporto :
LOGIN :

Iscrizione | Disclaimer

   EN    FR    IT 

 










Sommario :    VFR   VFR Marginale   IFR   IFR Intensivo   IFR Molto Intensivo
Visibilità : 
Base nubi : 
>= 8 km
>= 3000ft
5 / 8 km
1000 / 3000 ft
1500m / 5 km
500 / 1000 ft
800 / 1500m
200 / 500 ft
< 800m
< 200 ft
Simboli :   Temporali  Nebbia  Neve Forte  Precipitazioni Forti  Vento > 20 kt
SIGMETs :   Varie  Temporali  Ghiacco  Turbolenza  Onda orograficha  Ceneri Vulcaniche






- Altitudine del aeroporto : 200 ft


EBBL - Klein Brogel AB

ULTIMO METAR :
  • 171425Z AUTO 01004KT 9999 BKN160/// 06/03 Q1010 BLU

METARs OBSOLETI :
  • 171355Z AUTO 04005KT 9999 OVC160/// 06/03 Q1011 BLU
  • 171325Z AUTO 06004KT 9999 BKN160/// 06/03 Q1011 BLU
  • 171255Z AUTO 04005KT 9999 BKN160/// BKN240/// 06/02 Q1011 BLU
  • 171225Z AUTO 03004KT 9999 FEW150/// SCT240/// 07/03 Q1010 BLU
  • 171155Z AUTO 02004KT 9999 SCT160/// 06/02 Q1011 BLU

Previsioni scadute.



MetMap, La meteo Aeronautica in un colpo d'occhio ! - Copyright ORBIFLY Dicembre 2007 - Disclaimer

ORBIFLY MET'MAP TEAM :

Programmazione e sviluppo : Alexandra Zaïnal
Concezione e sviluppo : Baudouin d'Aumeries
Co-Programmazione e sviluppo : Marc-Olivier Méhu
Supporto tecnico e logistico : Manuel Goepfert
Aiuto per la traduzione : Arnaldo La Scala

Contatto : metmap@orbifly.com




FONTI E CREDITI :

   NOAA